sensor_id;sensor_type;location;lat;lon;timestamp;P1;durP1;ratioP1;P2;durP2;ratioP2
23001;SDS011;11667;51.706;4.856;2023-08-31T00:00:40;10.70;;;6.72;;
23001;SDS011;11667;51.706;4.856;2023-08-31T00:03:10;17.70;;;7.72;;
23001;SDS011;11667;51.706;4.856;2023-08-31T00:05:42;13.13;;;7.90;;
23001;SDS011;11667;51.706;4.856;2023-08-31T00:08:12;16.52;;;8.78;;
23001;SDS011;11667;51.706;4.856;2023-08-31T00:10:42;14.73;;;8.75;;
23001;SDS011;11667;51.706;4.856;2023-08-31T00:13:11;18.12;;;9.13;;
23001;SDS011;11667;51.706;4.856;2023-08-31T00:15:40;20.62;;;10.25;;
23001;SDS011;11667;51.706;4.856;2023-08-31T00:18:10;15.35;;;9.88;;
23001;SDS011;11667;51.706;4.856;2023-08-31T00:20:40;20.15;;;11.53;;
23001;SDS011;11667;51.706;4.856;2023-08-31T00:23:09;19.80;;;10.20;;
23001;SDS011;11667;51.706;4.856;2023-08-31T00:25:39;20.00;;;11.00;;
23001;SDS011;11667;51.706;4.856;2023-08-31T00:28:10;20.60;;;11.45;;
23001;SDS011;11667;51.706;4.856;2023-08-31T00:30:39;21.30;;;12.43;;
23001;SDS011;11667;51.706;4.856;2023-08-31T00:33:10;23.15;;;12.35;;
23001;SDS011;11667;51.706;4.856;2023-08-31T00:35:41;20.97;;;12.55;;
23001;SDS011;11667;51.706;4.856;2023-08-31T00:38:12;23.00;;;12.80;;
23001;SDS011;11667;51.706;4.856;2023-08-31T00:40:44;20.72;;;12.93;;
23001;SDS011;11667;51.706;4.856;2023-08-31T00:43:13;23.52;;;12.75;;
23001;SDS011;11667;51.706;4.856;2023-08-31T00:45:44;25.17;;;13.32;;
23001;SDS011;11667;51.706;4.856;2023-08-31T00:48:15;21.62;;;13.08;;
23001;SDS011;11667;51.706;4.856;2023-08-31T00:50:45;23.98;;;13.00;;
23001;SDS011;11667;51.706;4.856;2023-08-31T00:53:15;23.92;;;13.68;;
23001;SDS011;11667;51.706;4.856;2023-08-31T00:55:44;22.77;;;12.90;;
23001;SDS011;11667;51.706;4.856;2023-08-31T00:58:14;27.77;;;14.70;;
23001;SDS011;11667;51.706;4.856;2023-08-31T01:03:54;21.30;;;12.95;;
23001;SDS011;11667;51.706;4.856;2023-08-31T01:06:34;27.05;;;12.47;;
23001;SDS011;11667;51.706;4.856;2023-08-31T01:09:13;22.37;;;12.93;;
23001;SDS011;11667;51.706;4.856;2023-08-31T01:14:31;22.27;;;13.10;;
23001;SDS011;11667;51.706;4.856;2023-08-31T01:17:00;26.48;;;12.53;;
23001;SDS011;11667;51.706;4.856;2023-08-31T01:19:39;25.90;;;11.97;;
23001;SDS011;11667;51.706;4.856;2023-08-31T01:25:02;20.20;;;12.47;;
23001;SDS011;11667;51.706;4.856;2023-08-31T01:27:36;26.62;;;13.13;;
23001;SDS011;11667;51.706;4.856;2023-08-31T01:30:07;21.73;;;12.45;;
23001;SDS011;11667;51.706;4.856;2023-08-31T01:32:36;25.50;;;12.95;;
23001;SDS011;11667;51.706;4.856;2023-08-31T01:35:06;24.27;;;13.10;;
23001;SDS011;11667;51.706;4.856;2023-08-31T01:37:39;24.98;;;13.00;;
23001;SDS011;11667;51.706;4.856;2023-08-31T01:43:01;23.02;;;13.10;;
23001;SDS011;11667;51.706;4.856;2023-08-31T01:48:13;23.02;;;13.25;;
23001;SDS011;11667;51.706;4.856;2023-08-31T01:50:43;23.77;;;13.00;;
23001;SDS011;11667;51.706;4.856;2023-08-31T01:53:12;24.63;;;13.30;;
23001;SDS011;11667;51.706;4.856;2023-08-31T01:55:42;26.37;;;12.98;;
23001;SDS011;11667;51.706;4.856;2023-08-31T01:58:11;24.02;;;13.10;;
23001;SDS011;11667;51.706;4.856;2023-08-31T02:00:41;24.10;;;13.35;;
23001;SDS011;11667;51.706;4.856;2023-08-31T02:03:13;24.75;;;13.75;;
23001;SDS011;11667;51.706;4.856;2023-08-31T02:08:14;26.80;;;14.25;;
23001;SDS011;11667;51.706;4.856;2023-08-31T02:10:48;27.27;;;13.90;;
23001;SDS011;11667;51.706;4.856;2023-08-31T02:13:20;25.90;;;14.90;;
23001;SDS011;11667;51.706;4.856;2023-08-31T02:15:52;30.35;;;14.85;;
23001;SDS011;11667;51.706;4.856;2023-08-31T02:20:54;24.23;;;13.93;;
23001;SDS011;11667;51.706;4.856;2023-08-31T02:23:23;31.40;;;16.17;;
23001;SDS011;11667;51.706;4.856;2023-08-31T02:25:52;27.98;;;14.93;;
23001;SDS011;11667;51.706;4.856;2023-08-31T02:28:22;31.42;;;15.70;;
23001;SDS011;11667;51.706;4.856;2023-08-31T02:30:58;29.35;;;15.48;;
23001;SDS011;11667;51.706;4.856;2023-08-31T02:33:30;29.92;;;16.30;;
23001;SDS011;11667;51.706;4.856;2023-08-31T02:35:59;27.40;;;15.55;;
23001;SDS011;11667;51.706;4.856;2023-08-31T02:38:28;28.65;;;14.95;;
23001;SDS011;11667;51.706;4.856;2023-08-31T02:40:58;29.35;;;15.28;;
23001;SDS011;11667;51.706;4.856;2023-08-31T02:43:28;28.57;;;16.35;;
23001;SDS011;11667;51.706;4.856;2023-08-31T02:46:00;28.83;;;15.65;;
23001;SDS011;11667;51.706;4.856;2023-08-31T02:51:00;29.45;;;15.18;;
23001;SDS011;11667;51.706;4.856;2023-08-31T02:53:30;28.52;;;15.83;;
23001;SDS011;11667;51.706;4.856;2023-08-31T02:56:00;29.02;;;15.80;;
23001;SDS011;11667;51.706;4.856;2023-08-31T02:58:30;28.98;;;15.53;;
23001;SDS011;11667;51.706;4.856;2023-08-31T03:01:06;28.40;;;15.55;;
23001;SDS011;11667;51.706;4.856;2023-08-31T03:03:41;28.98;;;15.25;;
23001;SDS011;11667;51.706;4.856;2023-08-31T03:06:13;30.15;;;16.37;;
23001;SDS011;11667;51.706;4.856;2023-08-31T03:08:42;31.70;;;16.15;;
23001;SDS011;11667;51.706;4.856;2023-08-31T03:11:12;33.00;;;16.42;;
23001;SDS011;11667;51.706;4.856;2023-08-31T03:16:14;28.15;;;16.00;;
23001;SDS011;11667;51.706;4.856;2023-08-31T03:18:43;30.05;;;16.90;;
23001;SDS011;11667;51.706;4.856;2023-08-31T03:21:12;35.33;;;18.48;;
23001;SDS011;11667;51.706;4.856;2023-08-31T03:23:42;30.75;;;17.42;;
23001;SDS011;11667;51.706;4.856;2023-08-31T03:26:11;30.62;;;16.90;;
23001;SDS011;11667;51.706;4.856;2023-08-31T03:28:41;36.23;;;17.67;;
23001;SDS011;11667;51.706;4.856;2023-08-31T03:31:10;30.20;;;17.60;;
23001;SDS011;11667;51.706;4.856;2023-08-31T03:33:41;31.35;;;17.67;;
23001;SDS011;11667;51.706;4.856;2023-08-31T03:36:10;41.20;;;18.85;;
23001;SDS011;11667;51.706;4.856;2023-08-31T03:38:40;29.05;;;16.50;;
23001;SDS011;11667;51.706;4.856;2023-08-31T03:41:09;32.03;;;17.98;;
23001;SDS011;11667;51.706;4.856;2023-08-31T03:43:39;32.33;;;18.17;;
23001;SDS011;11667;51.706;4.856;2023-08-31T03:46:09;35.80;;;18.60;;
23001;SDS011;11667;51.706;4.856;2023-08-31T03:48:38;32.03;;;17.90;;
23001;SDS011;11667;51.706;4.856;2023-08-31T03:51:08;33.10;;;17.35;;
23001;SDS011;11667;51.706;4.856;2023-08-31T03:53:37;29.55;;;16.97;;
23001;SDS011;11667;51.706;4.856;2023-08-31T03:56:06;33.50;;;18.25;;
23001;SDS011;11667;51.706;4.856;2023-08-31T03:58:36;32.13;;;17.87;;
23001;SDS011;11667;51.706;4.856;2023-08-31T04:01:05;35.92;;;18.60;;
23001;SDS011;11667;51.706;4.856;2023-08-31T04:03:35;32.50;;;17.85;;
23001;SDS011;11667;51.706;4.856;2023-08-31T04:06:04;32.95;;;17.87;;
23001;SDS011;11667;51.706;4.856;2023-08-31T04:08:34;33.53;;;19.37;;
23001;SDS011;11667;51.706;4.856;2023-08-31T04:11:03;36.73;;;18.12;;
23001;SDS011;11667;51.706;4.856;2023-08-31T04:13:32;36.50;;;18.75;;
23001;SDS011;11667;51.706;4.856;2023-08-31T04:16:01;32.53;;;18.20;;
23001;SDS011;11667;51.706;4.856;2023-08-31T04:18:31;32.15;;;17.82;;
23001;SDS011;11667;51.706;4.856;2023-08-31T04:21:00;37.23;;;18.65;;
23001;SDS011;11667;51.706;4.856;2023-08-31T04:23:31;31.25;;;17.77;;
23001;SDS011;11667;51.706;4.856;2023-08-31T04:26:00;29.82;;;17.48;;
23001;SDS011;11667;51.706;4.856;2023-08-31T04:28:33;31.80;;;17.30;;
23001;SDS011;11667;51.706;4.856;2023-08-31T04:31:04;30.40;;;17.48;;
23001;SDS011;11667;51.706;4.856;2023-08-31T04:33:35;28.75;;;17.12;;
23001;SDS011;11667;51.706;4.856;2023-08-31T04:39:05;29.48;;;16.10;;
23001;SDS011;11667;51.706;4.856;2023-08-31T04:41:35;29.37;;;15.53;;
23001;SDS011;11667;51.706;4.856;2023-08-31T04:44:04;28.23;;;15.80;;
23001;SDS011;11667;51.706;4.856;2023-08-31T04:46:34;30.35;;;15.98;;
23001;SDS011;11667;51.706;4.856;2023-08-31T04:49:03;29.18;;;15.48;;
23001;SDS011;11667;51.706;4.856;2023-08-31T04:51:34;27.55;;;14.47;;
23001;SDS011;11667;51.706;4.856;2023-08-31T04:54:06;27.93;;;14.60;;
23001;SDS011;11667;51.706;4.856;2023-08-31T04:56:35;27.25;;;14.90;;
23001;SDS011;11667;51.706;4.856;2023-08-31T04:59:04;25.92;;;14.13;;
23001;SDS011;11667;51.706;4.856;2023-08-31T05:01:34;26.62;;;13.95;;
23001;SDS011;11667;51.706;4.856;2023-08-31T05:04:03;23.92;;;14.58;;
23001;SDS011;11667;51.706;4.856;2023-08-31T05:06:33;24.40;;;13.78;;
23001;SDS011;11667;51.706;4.856;2023-08-31T05:09:03;29.25;;;14.68;;
23001;SDS011;11667;51.706;4.856;2023-08-31T05:11:33;27.85;;;14.55;;
23001;SDS011;11667;51.706;4.856;2023-08-31T05:14:03;26.00;;;14.25;;
23001;SDS011;11667;51.706;4.856;2023-08-31T05:16:32;28.45;;;14.23;;
23001;SDS011;11667;51.706;4.856;2023-08-31T05:19:02;29.12;;;14.53;;
23001;SDS011;11667;51.706;4.856;2023-08-31T05:21:31;33.02;;;14.40;;
23001;SDS011;11667;51.706;4.856;2023-08-31T05:24:01;28.00;;;14.18;;
23001;SDS011;11667;51.706;4.856;2023-08-31T05:26:30;26.57;;;14.23;;
23001;SDS011;11667;51.706;4.856;2023-08-31T05:28:59;28.20;;;14.33;;
23001;SDS011;11667;51.706;4.856;2023-08-31T05:31:31;28.75;;;14.20;;
23001;SDS011;11667;51.706;4.856;2023-08-31T05:34:00;29.95;;;14.40;;
23001;SDS011;11667;51.706;4.856;2023-08-31T05:36:30;26.65;;;13.58;;
23001;SDS011;11667;51.706;4.856;2023-08-31T05:38:59;24.77;;;13.65;;
23001;SDS011;11667;51.706;4.856;2023-08-31T05:41:28;26.97;;;13.25;;
23001;SDS011;11667;51.706;4.856;2023-08-31T05:43:58;25.48;;;13.38;;
23001;SDS011;11667;51.706;4.856;2023-08-31T05:46:27;21.48;;;11.73;;
23001;SDS011;11667;51.706;4.856;2023-08-31T05:48:56;17.12;;;11.10;;
23001;SDS011;11667;51.706;4.856;2023-08-31T05:51:26;18.60;;;10.08;;
23001;SDS011;11667;51.706;4.856;2023-08-31T05:53:58;18.80;;;9.30;;
23001;SDS011;11667;51.706;4.856;2023-08-31T05:56:27;15.95;;;9.30;;
23001;SDS011;11667;51.706;4.856;2023-08-31T05:58:56;15.28;;;8.90;;
23001;SDS011;11667;51.706;4.856;2023-08-31T06:01:26;12.60;;;7.28;;
23001;SDS011;11667;51.706;4.856;2023-08-31T06:03:55;9.75;;;6.37;;
23001;SDS011;11667;51.706;4.856;2023-08-31T06:06:25;9.93;;;5.67;;
23001;SDS011;11667;51.706;4.856;2023-08-31T06:12:11;10.63;;;5.40;;
23001;SDS011;11667;51.706;4.856;2023-08-31T06:14:40;9.60;;;5.03;;
23001;SDS011;11667;51.706;4.856;2023-08-31T06:17:10;9.75;;;5.65;;
23001;SDS011;11667;51.706;4.856;2023-08-31T06:19:41;9.38;;;5.42;;
23001;SDS011;11667;51.706;4.856;2023-08-31T06:22:10;11.95;;;6.35;;
23001;SDS011;11667;51.706;4.856;2023-08-31T06:24:39;11.38;;;6.08;;
23001;SDS011;11667;51.706;4.856;2023-08-31T06:27:10;9.43;;;6.28;;
23001;SDS011;11667;51.706;4.856;2023-08-31T06:29:40;9.03;;;6.45;;
23001;SDS011;11667;51.706;4.856;2023-08-31T06:32:09;11.15;;;6.95;;
23001;SDS011;11667;51.706;4.856;2023-08-31T06:34:38;11.73;;;7.28;;
23001;SDS011;11667;51.706;4.856;2023-08-31T06:37:08;12.10;;;7.72;;
23001;SDS011;11667;51.706;4.856;2023-08-31T06:39:37;13.75;;;7.28;;
23001;SDS011;11667;51.706;4.856;2023-08-31T06:42:08;18.57;;;7.97;;
23001;SDS011;11667;51.706;4.856;2023-08-31T06:44:37;12.68;;;7.60;;
23001;SDS011;11667;51.706;4.856;2023-08-31T06:47:07;14.28;;;8.10;;
23001;SDS011;11667;51.706;4.856;2023-08-31T06:49:37;15.50;;;7.85;;
23001;SDS011;11667;51.706;4.856;2023-08-31T06:52:06;16.52;;;8.03;;
23001;SDS011;11667;51.706;4.856;2023-08-31T06:54:37;15.60;;;8.60;;
23001;SDS011;11667;51.706;4.856;2023-08-31T06:57:07;16.60;;;8.60;;
23001;SDS011;11667;51.706;4.856;2023-08-31T06:59:36;15.40;;;8.48;;
23001;SDS011;11667;51.706;4.856;2023-08-31T07:02:06;17.62;;;9.93;;
23001;SDS011;11667;51.706;4.856;2023-08-31T07:04:35;16.85;;;8.43;;
23001;SDS011;11667;51.706;4.856;2023-08-31T07:07:05;15.38;;;8.60;;
23001;SDS011;11667;51.706;4.856;2023-08-31T07:09:36;15.03;;;7.97;;
23001;SDS011;11667;51.706;4.856;2023-08-31T07:12:05;15.85;;;7.95;;
23001;SDS011;11667;51.706;4.856;2023-08-31T07:14:35;11.83;;;7.40;;
23001;SDS011;11667;51.706;4.856;2023-08-31T07:17:04;14.50;;;7.47;;
23001;SDS011;11667;51.706;4.856;2023-08-31T07:19:36;12.13;;;7.08;;
23001;SDS011;11667;51.706;4.856;2023-08-31T07:22:06;12.85;;;6.95;;
23001;SDS011;11667;51.706;4.856;2023-08-31T07:24:35;15.28;;;7.45;;
23001;SDS011;11667;51.706;4.856;2023-08-31T07:27:04;14.90;;;7.25;;
23001;SDS011;11667;51.706;4.856;2023-08-31T07:29:34;12.68;;;7.60;;
23001;SDS011;11667;51.706;4.856;2023-08-31T07:32:03;13.40;;;7.22;;
23001;SDS011;11667;51.706;4.856;2023-08-31T07:34:33;13.32;;;7.12;;
23001;SDS011;11667;51.706;4.856;2023-08-31T07:37:03;14.20;;;6.87;;
23001;SDS011;11667;51.706;4.856;2023-08-31T07:39:33;12.47;;;6.95;;
23001;SDS011;11667;51.706;4.856;2023-08-31T07:42:04;11.43;;;6.45;;
23001;SDS011;11667;51.706;4.856;2023-08-31T07:44:34;14.13;;;7.10;;
23001;SDS011;11667;51.706;4.856;2023-08-31T07:47:03;15.63;;;6.58;;
23001;SDS011;11667;51.706;4.856;2023-08-31T07:49:33;13.32;;;6.75;;
23001;SDS011;11667;51.706;4.856;2023-08-31T07:52:02;10.45;;;6.35;;
23001;SDS011;11667;51.706;4.856;2023-08-31T07:54:32;11.85;;;6.42;;
23001;SDS011;11667;51.706;4.856;2023-08-31T07:57:01;11.78;;;6.40;;
23001;SDS011;11667;51.706;4.856;2023-08-31T07:59:31;14.73;;;7.00;;
23001;SDS011;11667;51.706;4.856;2023-08-31T08:04:50;11.03;;;6.80;;
23001;SDS011;11667;51.706;4.856;2023-08-31T08:07:19;12.18;;;6.50;;
23001;SDS011;11667;51.706;4.856;2023-08-31T08:09:48;11.85;;;6.33;;
23001;SDS011;11667;51.706;4.856;2023-08-31T08:12:18;11.45;;;6.08;;
23001;SDS011;11667;51.706;4.856;2023-08-31T08:14:47;16.02;;;6.85;;
23001;SDS011;11667;51.706;4.856;2023-08-31T08:17:16;11.83;;;6.03;;
23001;SDS011;11667;51.706;4.856;2023-08-31T08:19:47;11.45;;;6.35;;
23001;SDS011;11667;51.706;4.856;2023-08-31T08:22:16;11.78;;;6.47;;
23001;SDS011;11667;51.706;4.856;2023-08-31T08:27:29;11.43;;;5.87;;
23001;SDS011;11667;51.706;4.856;2023-08-31T08:30:00;9.55;;;5.58;;
23001;SDS011;11667;51.706;4.856;2023-08-31T08:32:29;12.73;;;6.22;;
23001;SDS011;11667;51.706;4.856;2023-08-31T08:34:59;10.58;;;6.25;;
23001;SDS011;11667;51.706;4.856;2023-08-31T08:37:37;13.78;;;5.90;;
23001;SDS011;11667;51.706;4.856;2023-08-31T08:40:07;11.97;;;5.83;;
23001;SDS011;11667;51.706;4.856;2023-08-31T08:42:41;9.05;;;5.20;;
23001;SDS011;11667;51.706;4.856;2023-08-31T08:45:14;8.60;;;4.90;;
23001;SDS011;11667;51.706;4.856;2023-08-31T08:47:44;8.63;;;4.78;;
23001;SDS011;11667;51.706;4.856;2023-08-31T08:50:14;7.20;;;4.75;;
23001;SDS011;11667;51.706;4.856;2023-08-31T08:52:44;9.55;;;5.05;;
23001;SDS011;11667;51.706;4.856;2023-08-31T08:55:14;10.23;;;5.30;;
23001;SDS011;11667;51.706;4.856;2023-08-31T08:57:44;7.72;;;4.62;;
23001;SDS011;11667;51.706;4.856;2023-08-31T09:00:13;7.33;;;4.70;;
23001;SDS011;11667;51.706;4.856;2023-08-31T09:02:43;12.95;;;5.00;;
23001;SDS011;11667;51.706;4.856;2023-08-31T09:05:13;9.20;;;5.00;;
23001;SDS011;11667;51.706;4.856;2023-08-31T09:10:35;10.03;;;5.62;;
23001;SDS011;11667;51.706;4.856;2023-08-31T09:13:05;10.78;;;5.55;;
23001;SDS011;11667;51.706;4.856;2023-08-31T09:15:37;9.38;;;4.90;;
23001;SDS011;11667;51.706;4.856;2023-08-31T09:18:15;7.92;;;4.92;;
23001;SDS011;11667;51.706;4.856;2023-08-31T09:20:46;6.65;;;4.20;;
23001;SDS011;11667;51.706;4.856;2023-08-31T09:23:15;7.30;;;5.03;;
23001;SDS011;11667;51.706;4.856;2023-08-31T09:25:46;8.25;;;4.95;;
23001;SDS011;11667;51.706;4.856;2023-08-31T09:28:22;9.05;;;4.58;;
23001;SDS011;11667;51.706;4.856;2023-08-31T09:31:04;7.37;;;5.00;;
23001;SDS011;11667;51.706;4.856;2023-08-31T09:36:06;6.25;;;3.90;;
23001;SDS011;11667;51.706;4.856;2023-08-31T09:38:46;8.10;;;4.10;;
23001;SDS011;11667;51.706;4.856;2023-08-31T09:41:11;5.30;;;3.20;;
23001;SDS011;11667;51.706;4.856;2023-08-31T09:43:43;5.95;;;2.90;;
23001;SDS011;11667;51.706;4.856;2023-08-31T09:46:12;8.10;;;3.20;;
23001;SDS011;11667;51.706;4.856;2023-08-31T09:48:43;5.62;;;2.60;;
23001;SDS011;11667;51.706;4.856;2023-08-31T09:51:13;5.42;;;2.52;;
23001;SDS011;11667;51.706;4.856;2023-08-31T09:53:50;7.75;;;2.52;;
23001;SDS011;11667;51.706;4.856;2023-08-31T09:56:21;5.33;;;2.90;;
23001;SDS011;11667;51.706;4.856;2023-08-31T10:01:42;4.12;;;1.95;;
23001;SDS011;11667;51.706;4.856;2023-08-31T10:04:13;6.15;;;2.08;;
23001;SDS011;11667;51.706;4.856;2023-08-31T10:06:43;4.53;;;2.15;;
23001;SDS011;11667;51.706;4.856;2023-08-31T10:09:12;10.95;;;3.22;;
23001;SDS011;11667;51.706;4.856;2023-08-31T10:11:43;6.92;;;2.50;;
23001;SDS011;11667;51.706;4.856;2023-08-31T10:14:12;3.90;;;2.20;;
23001;SDS011;11667;51.706;4.856;2023-08-31T10:16:43;3.98;;;2.65;;
23001;SDS011;11667;51.706;4.856;2023-08-31T10:22:16;4.25;;;1.87;;
23001;SDS011;11667;51.706;4.856;2023-08-31T10:24:58;2.67;;;1.67;;
23001;SDS011;11667;51.706;4.856;2023-08-31T10:27:28;3.30;;;1.60;;
23001;SDS011;11667;51.706;4.856;2023-08-31T10:33:42;2.65;;;1.50;;
23001;SDS011;11667;51.706;4.856;2023-08-31T10:36:16;4.40;;;1.80;;
23001;SDS011;11667;51.706;4.856;2023-08-31T10:38:47;5.28;;;1.82;;
23001;SDS011;11667;51.706;4.856;2023-08-31T10:44:41;2.45;;;1.47;;
23001;SDS011;11667;51.706;4.856;2023-08-31T10:47:11;6.87;;;1.70;;
23001;SDS011;11667;51.706;4.856;2023-08-31T10:49:42;4.35;;;1.70;;
23001;SDS011;11667;51.706;4.856;2023-08-31T10:55:18;4.50;;;1.57;;
23001;SDS011;11667;51.706;4.856;2023-08-31T10:57:49;4.42;;;1.42;;
23001;SDS011;11667;51.706;4.856;2023-08-31T11:00:45;3.15;;;1.52;;
23001;SDS011;11667;51.706;4.856;2023-08-31T11:03:06;2.62;;;1.45;;
23001;SDS011;11667;51.706;4.856;2023-08-31T11:05:36;3.80;;;1.52;;
23001;SDS011;11667;51.706;4.856;2023-08-31T11:08:09;2.58;;;1.50;;
23001;SDS011;11667;51.706;4.856;2023-08-31T11:10:38;2.90;;;1.35;;
23001;SDS011;11667;51.706;4.856;2023-08-31T11:13:08;4.47;;;1.65;;
23001;SDS011;11667;51.706;4.856;2023-08-31T11:15:39;4.22;;;1.80;;
23001;SDS011;11667;51.706;4.856;2023-08-31T11:18:12;2.77;;;1.35;;
23001;SDS011;11667;51.706;4.856;2023-08-31T11:20:43;3.15;;;1.50;;
23001;SDS011;11667;51.706;4.856;2023-08-31T11:23:12;5.37;;;1.50;;
23001;SDS011;11667;51.706;4.856;2023-08-31T11:28:46;4.87;;;1.45;;
23001;SDS011;11667;51.706;4.856;2023-08-31T11:31:22;3.25;;;1.40;;
23001;SDS011;11667;51.706;4.856;2023-08-31T11:33:53;7.12;;;1.40;;
23001;SDS011;11667;51.706;4.856;2023-08-31T11:39:40;3.75;;;1.37;;
23001;SDS011;11667;51.706;4.856;2023-08-31T11:45:07;2.77;;;1.70;;
23001;SDS011;11667;51.706;4.856;2023-08-31T11:47:40;3.30;;;1.40;;
23001;SDS011;11667;51.706;4.856;2023-08-31T11:50:10;3.85;;;1.40;;
23001;SDS011;11667;51.706;4.856;2023-08-31T11:52:40;4.20;;;1.65;;
23001;SDS011;11667;51.706;4.856;2023-08-31T11:55:10;5.42;;;1.50;;
23001;SDS011;11667;51.706;4.856;2023-08-31T11:57:40;3.33;;;1.20;;
23001;SDS011;11667;51.706;4.856;2023-08-31T12:00:11;4.20;;;1.30;;
23001;SDS011;11667;51.706;4.856;2023-08-31T12:02:41;3.02;;;1.15;;
23001;SDS011;11667;51.706;4.856;2023-08-31T12:05:12;3.12;;;1.20;;
23001;SDS011;11667;51.706;4.856;2023-08-31T12:07:41;4.53;;;1.55;;
23001;SDS011;11667;51.706;4.856;2023-08-31T12:10:11;3.42;;;1.32;;
23001;SDS011;11667;51.706;4.856;2023-08-31T12:12:42;2.50;;;1.33;;
23001;SDS011;11667;51.706;4.856;2023-08-31T12:15:12;4.03;;;1.52;;
23001;SDS011;11667;51.706;4.856;2023-08-31T12:17:41;3.30;;;1.40;;
23001;SDS011;11667;51.706;4.856;2023-08-31T12:20:13;2.77;;;1.37;;
23001;SDS011;11667;51.706;4.856;2023-08-31T12:22:43;3.50;;;1.47;;
23001;SDS011;11667;51.706;4.856;2023-08-31T12:25:19;3.67;;;1.32;;
23001;SDS011;11667;51.706;4.856;2023-08-31T12:27:45;4.90;;;1.50;;
23001;SDS011;11667;51.706;4.856;2023-08-31T12:30:14;2.47;;;1.40;;
23001;SDS011;11667;51.706;4.856;2023-08-31T12:32:43;2.65;;;1.40;;
23001;SDS011;11667;51.706;4.856;2023-08-31T12:35:13;3.05;;;1.10;;
23001;SDS011;11667;51.706;4.856;2023-08-31T12:37:43;5.58;;;1.27;;
23001;SDS011;11667;51.706;4.856;2023-08-31T12:40:12;2.60;;;1.20;;
23001;SDS011;11667;51.706;4.856;2023-08-31T12:42:42;2.00;;;0.90;;
23001;SDS011;11667;51.706;4.856;2023-08-31T12:45:12;1.80;;;1.02;;
23001;SDS011;11667;51.706;4.856;2023-08-31T12:47:41;4.05;;;1.30;;
23001;SDS011;11667;51.706;4.856;2023-08-31T12:50:10;4.17;;;1.25;;
23001;SDS011;11667;51.706;4.856;2023-08-31T12:52:40;5.22;;;1.50;;
23001;SDS011;11667;51.706;4.856;2023-08-31T12:55:11;3.30;;;1.37;;
23001;SDS011;11667;51.706;4.856;2023-08-31T12:57:42;3.72;;;1.25;;
23001;SDS011;11667;51.706;4.856;2023-08-31T13:00:12;3.72;;;1.27;;
23001;SDS011;11667;51.706;4.856;2023-08-31T13:02:45;3.47;;;1.30;;
23001;SDS011;11667;51.706;4.856;2023-08-31T13:05:14;3.45;;;1.37;;
23001;SDS011;11667;51.706;4.856;2023-08-31T13:07:44;2.05;;;1.05;;
23001;SDS011;11667;51.706;4.856;2023-08-31T13:10:13;3.22;;;1.20;;
23001;SDS011;11667;51.706;4.856;2023-08-31T13:12:43;2.70;;;1.22;;
23001;SDS011;11667;51.706;4.856;2023-08-31T13:15:12;3.58;;;1.30;;
23001;SDS011;11667;51.706;4.856;2023-08-31T13:17:42;2.42;;;1.17;;
23001;SDS011;11667;51.706;4.856;2023-08-31T13:20:11;2.22;;;1.17;;
23001;SDS011;11667;51.706;4.856;2023-08-31T13:22:40;4.17;;;1.30;;
23001;SDS011;11667;51.706;4.856;2023-08-31T13:25:10;2.92;;;1.10;;
23001;SDS011;11667;51.706;4.856;2023-08-31T13:27:40;3.55;;;1.07;;
23001;SDS011;11667;51.706;4.856;2023-08-31T13:30:09;2.83;;;1.35;;
23001;SDS011;11667;51.706;4.856;2023-08-31T13:32:40;2.00;;;1.10;;
23001;SDS011;11667;51.706;4.856;2023-08-31T13:35:09;5.67;;;1.27;;
23001;SDS011;11667;51.706;4.856;2023-08-31T13:37:39;2.62;;;1.17;;
23001;SDS011;11667;51.706;4.856;2023-08-31T13:40:08;3.20;;;1.40;;
23001;SDS011;11667;51.706;4.856;2023-08-31T13:42:48;1.60;;;1.22;;
23001;SDS011;11667;51.706;4.856;2023-08-31T13:47:39;3.30;;;1.00;;
23001;SDS011;11667;51.706;4.856;2023-08-31T13:50:10;3.67;;;1.40;;
23001;SDS011;11667;51.706;4.856;2023-08-31T13:52:39;1.80;;;1.07;;
23001;SDS011;11667;51.706;4.856;2023-08-31T13:55:09;4.25;;;1.37;;
23001;SDS011;11667;51.706;4.856;2023-08-31T13:57:41;2.52;;;1.17;;
23001;SDS011;11667;51.706;4.856;2023-08-31T14:00:10;3.33;;;1.27;;
23001;SDS011;11667;51.706;4.856;2023-08-31T14:02:42;3.52;;;1.30;;
23001;SDS011;11667;51.706;4.856;2023-08-31T14:07:42;2.12;;;1.20;;
23001;SDS011;11667;51.706;4.856;2023-08-31T14:10:12;3.02;;;1.30;;
23001;SDS011;11667;51.706;4.856;2023-08-31T14:12:42;3.10;;;1.30;;
23001;SDS011;11667;51.706;4.856;2023-08-31T14:15:13;3.33;;;1.32;;
23001;SDS011;11667;51.706;4.856;2023-08-31T14:17:42;2.17;;;1.20;;
23001;SDS011;11667;51.706;4.856;2023-08-31T14:20:11;4.22;;;1.32;;
23001;SDS011;11667;51.706;4.856;2023-08-31T14:25:34;3.52;;;1.52;;
23001;SDS011;11667;51.706;4.856;2023-08-31T14:28:05;3.10;;;1.40;;
23001;SDS011;11667;51.706;4.856;2023-08-31T14:30:35;2.33;;;1.30;;
23001;SDS011;11667;51.706;4.856;2023-08-31T14:33:05;2.37;;;1.37;;
23001;SDS011;11667;51.706;4.856;2023-08-31T14:35:37;3.55;;;1.40;;
23001;SDS011;11667;51.706;4.856;2023-08-31T14:38:10;7.05;;;1.20;;
23001;SDS011;11667;51.706;4.856;2023-08-31T14:40:40;17.82;;;1.62;;
23001;SDS011;11667;51.706;4.856;2023-08-31T14:43:10;2.40;;;1.20;;
23001;SDS011;11667;51.706;4.856;2023-08-31T14:45:39;2.70;;;1.32;;
23001;SDS011;11667;51.706;4.856;2023-08-31T14:48:09;3.30;;;1.40;;
23001;SDS011;11667;51.706;4.856;2023-08-31T14:50:42;3.22;;;1.30;;
23001;SDS011;11667;51.706;4.856;2023-08-31T14:53:12;3.90;;;1.60;;
23001;SDS011;11667;51.706;4.856;2023-08-31T14:55:47;2.47;;;1.50;;
23001;SDS011;11667;51.706;4.856;2023-08-31T14:58:18;3.00;;;1.22;;
23001;SDS011;11667;51.706;4.856;2023-08-31T15:00:48;3.33;;;1.52;;
23001;SDS011;11667;51.706;4.856;2023-08-31T15:03:18;3.22;;;1.45;;
23001;SDS011;11667;51.706;4.856;2023-08-31T15:05:49;4.17;;;1.50;;
23001;SDS011;11667;51.706;4.856;2023-08-31T15:08:21;4.15;;;1.57;;
23001;SDS011;11667;51.706;4.856;2023-08-31T15:10:50;3.95;;;1.65;;
23001;SDS011;11667;51.706;4.856;2023-08-31T15:13:21;2.75;;;1.40;;
23001;SDS011;11667;51.706;4.856;2023-08-31T15:15:50;1.80;;;1.40;;
23001;SDS011;11667;51.706;4.856;2023-08-31T15:18:19;4.70;;;1.57;;
23001;SDS011;11667;51.706;4.856;2023-08-31T15:20:49;4.25;;;1.47;;
23001;SDS011;11667;51.706;4.856;2023-08-31T15:23:18;3.42;;;2.00;;
23001;SDS011;11667;51.706;4.856;2023-08-31T15:25:48;5.20;;;1.50;;
23001;SDS011;11667;51.706;4.856;2023-08-31T15:28:17;3.52;;;1.40;;
23001;SDS011;11667;51.706;4.856;2023-08-31T15:30:47;2.75;;;1.50;;
23001;SDS011;11667;51.706;4.856;2023-08-31T15:33:16;4.80;;;1.62;;
23001;SDS011;11667;51.706;4.856;2023-08-31T15:35:45;5.62;;;1.80;;
23001;SDS011;11667;51.706;4.856;2023-08-31T15:38:15;2.95;;;1.52;;
23001;SDS011;11667;51.706;4.856;2023-08-31T15:40:47;3.05;;;1.45;;
23001;SDS011;11667;51.706;4.856;2023-08-31T15:43:18;5.42;;;2.12;;
23001;SDS011;11667;51.706;4.856;2023-08-31T15:45:48;3.37;;;1.70;;
23001;SDS011;11667;51.706;4.856;2023-08-31T15:48:18;3.75;;;1.55;;
23001;SDS011;11667;51.706;4.856;2023-08-31T15:50:47;6.12;;;1.42;;
23001;SDS011;11667;51.706;4.856;2023-08-31T15:53:16;4.67;;;1.72;;
23001;SDS011;11667;51.706;4.856;2023-08-31T15:55:46;2.60;;;1.70;;
23001;SDS011;11667;51.706;4.856;2023-08-31T15:58:16;4.33;;;1.62;;
23001;SDS011;11667;51.706;4.856;2023-08-31T16:00:46;3.40;;;1.60;;
23001;SDS011;11667;51.706;4.856;2023-08-31T16:03:15;4.42;;;1.70;;
23001;SDS011;11667;51.706;4.856;2023-08-31T16:05:47;2.92;;;1.70;;
23001;SDS011;11667;51.706;4.856;2023-08-31T16:08:17;2.37;;;1.65;;